Rochester, NH

4:22 AM EST on December 04, 2016 (GMT -0500)
Skyhaven | | Change Station

Elev 322 ft 43.28 °N, 70.92 °W | Updated 31 minutes ago

Clear
Clear
31 °F
Feels Like 23 °F
N
9
Wind Variable Wind from NW

Today
High -- | Low -- °F
--% Chance of Precip.
Yesterday
High -- | Low -- °F
Precip. -- in
Pressure 30.09 in
Visibility 10.0 miles
Clouds Clear
Windchill 23 °F
Dew Point 19 °F
Humidity 61%
Rainfall 0.00 in
Snow Depth Not available.
6:59 AM 4:08 PM
Waxing Crescent, 21% visible
METAR KDAW 040851Z AUTO 31008KT 10SM CLR M01/M07 A3009 RMK AO2 SLP189 T10061072 51017
Pressure 30.09 in
Visibility 10.0 miles
Clouds Clear
Windchill 23 °F
Dew Point 19 °F
Humidity 61%
Rainfall 0.00 in
Snow Depth Not available.
6:59 AM 4:08 PM
Waxing Crescent, 21% visible
METAR KDAW 040851Z AUTO 31008KT 10SM CLR M01/M07 A3009 RMK AO2 SLP189 T10061072 51017

10-Day Weather Forecast

Almanac

Astronomy

Dec. 04, 2016 Rise Set
Actual Time
Civil Twilight
Nautical Twilight
Astronomical Twilight
Moon
Length of Visible Light
Length of Day
Tomorrow will be .
, % of the Moon is Illuminated

Today's Extremes

State Highs State Lows

Community

WunderPhotos

Upload Photos

1,955,587 photos uploaded!

WunderBlog® & News

Nearby

Air Quality

  Air Quality AQ Index Pollutant
Not available.

Snow Depth

Station Depth Elevation

Earthquake Activity

City Distance Mag. Time & Date
Minimum magnitude displayed is 2.5.

Coastal Water Temperatures

Place Temperature

Stations

Nearby Weather Stations

Station Location Temp. Windchill Dew Point Humidity Wind Precip. Elev Updated Type
                   

Watches & Warnings

There are currently no watches in effect.